Time;durP1;ratioP1;P1;durP2;ratioP2;P2;SDS_P1;SDS_P2;PMS_P1;PMS_P2;Temp;Humidity;BMP_temperature;BMP_pressure;BME280_temperature;BME280_humidity;BME280_pressure;Samples;Min_cycle;Max_cycle;Signal;HPM_P1;HPM_P2
2023/06/13 00:01:48;;;;;;;2.50;2.50;;;23.80;65.10;;;;;;5106731;27;43641;-68
2023/06/13 00:04:21;;;;;;;2.57;2.57;;;23.70;65.20;;;;;;5107348;28;43486;-67
2023/06/13 00:06:53;;;;;;;2.80;2.80;;;23.70;65.40;;;;;;5107330;28;43819;-68
2023/06/13 00:09:22;;;;;;;2.90;2.90;;;23.70;65.40;;;;;;5105471;27;43678;-69
2023/06/13 00:11:50;;;;;;;2.63;2.63;;;23.70;65.30;;;;;;5106375;27;43505;-69
2023/06/13 00:14:18;;;;;;;2.80;2.80;;;23.70;65.40;;;;;;5106981;27;43443;-69
2023/06/13 00:16:47;;;;;;;2.60;2.60;;;23.70;65.80;;;;;;5106697;27;43393;-69
2023/06/13 00:19:15;;;;;;;2.50;2.50;;;23.60;65.70;;;;;;5106996;28;43651;-69
2023/06/13 00:21:45;;;;;;;2.80;2.80;;;23.60;65.50;;;;;;5107042;27;43322;-68
2023/06/13 00:24:14;;;;;;;2.60;2.60;;;23.60;65.60;;;;;;5106518;27;44458;-68
2023/06/13 00:26:42;;;;;;;2.70;2.70;;;23.60;65.80;;;;;;5107098;28;43362;-68
2023/06/13 00:29:10;;;;;;;2.60;2.50;;;23.60;66.00;;;;;;5102965;28;45823;-68
2023/06/13 00:31:38;;;;;;;2.50;2.50;;;23.60;65.90;;;;;;5106364;27;43452;-68
2023/06/13 00:34:06;;;;;;;2.50;2.50;;;23.70;65.60;;;;;;5106812;28;43404;-68
2023/06/13 00:36:37;;;;;;;2.73;2.73;;;23.80;65.10;;;;;;5107333;27;43535;-69
2023/06/13 00:39:06;;;;;;;2.77;2.77;;;23.90;65.00;;;;;;5105056;28;45342;-69
2023/06/13 00:41:35;;;;;;;2.60;2.60;;;23.90;64.70;;;;;;5105016;27;44319;-68
2023/06/13 00:44:04;;;;;;;2.47;2.47;;;23.90;64.80;;;;;;5106978;27;43397;-68
2023/06/13 00:46:34;;;;;;;2.60;2.60;;;23.90;65.10;;;;;;5107287;27;43572;-69
2023/06/13 00:49:03;;;;;;;2.70;2.60;;;23.80;65.40;;;;;;5108874;28;43619;-69
2023/06/13 00:51:32;;;;;;;2.40;2.40;;;23.80;65.40;;;;;;5108847;27;43394;-68
2023/06/13 00:54:00;;;;;;;2.60;2.60;;;23.70;65.30;;;;;;5109601;27;43343;-68
2023/06/13 00:56:28;;;;;;;2.50;2.50;;;23.70;65.40;;;;;;5110543;28;43348;-68
2023/06/13 00:58:59;;;;;;;2.50;2.50;;;23.60;65.80;;;;;;5109364;28;43890;-68
2023/06/13 01:01:28;;;;;;;2.43;2.43;;;23.60;65.70;;;;;;5108904;27;43860;-68
2023/06/13 01:03:59;;;;;;;2.70;2.70;;;23.60;65.70;;;;;;5106632;28;43580;-68
2023/06/13 01:06:28;;;;;;;2.67;2.67;;;23.60;65.70;;;;;;5109046;28;43433;-68
2023/06/13 01:08:58;;;;;;;2.50;2.50;;;23.60;66.20;;;;;;5108187;28;43615;-68
2023/06/13 01:11:32;;;;;;;2.50;2.50;;;23.60;66.10;;;;;;5102448;28;45023;-69
2023/06/13 01:14:03;;;;;;;2.40;2.40;;;23.60;65.70;;;;;;5108992;28;43389;-69
2023/06/13 01:16:34;;;;;;;2.60;2.60;;;23.70;65.50;;;;;;5104669;28;43375;-69
2023/06/13 01:19:04;;;;;;;2.43;2.43;;;23.80;65.40;;;;;;5094274;28;44888;-68
2023/06/13 01:21:32;;;;;;;2.57;2.57;;;23.70;65.30;;;;;;5107757;28;44604;-68
2023/06/13 01:24:03;;;;;;;2.40;2.40;;;23.70;65.80;;;;;;5108349;28;43332;-68
2023/06/13 01:26:46;;;;;;;2.47;2.47;;;23.70;65.60;;;;;;5108241;28;43580;-69
2023/06/13 01:29:15;;;;;;;2.40;2.40;;;23.70;65.50;;;;;;5107796;28;43610;-69
2023/06/13 01:31:44;;;;;;;2.30;2.30;;;23.70;65.50;;;;;;5108384;27;43417;-69
2023/06/13 01:34:13;;;;;;;2.50;2.50;;;23.60;65.80;;;;;;5109173;27;43318;-68
2023/06/13 01:36:41;;;;;;;2.53;2.53;;;23.60;65.90;;;;;;5111723;27;43449;-69
2023/06/13 01:39:09;;;;;;;2.40;2.40;;;23.60;65.80;;;;;;5109050;27;43601;-69
2023/06/13 01:41:37;;;;;;;2.23;2.23;;;23.60;65.60;;;;;;5108767;27;43506;-69
2023/06/13 01:44:06;;;;;;;2.60;2.60;;;23.60;65.90;;;;;;5106912;28;43426;-68
2023/06/13 01:46:43;;;;;;;2.40;2.40;;;23.50;66.10;;;;;;5108637;27;43359;-68
2023/06/13 01:49:16;;;;;;;2.40;2.40;;;23.60;66.00;;;;;;5108408;27;43828;-69
2023/06/13 01:51:48;;;;;;;2.60;2.60;;;23.70;65.50;;;;;;5109895;27;43339;-69
2023/06/13 01:54:18;;;;;;;2.60;2.60;;;23.90;65.30;;;;;;5109121;27;43363;-69
2023/06/13 01:56:49;;;;;;;2.87;2.87;;;24.00;65.00;;;;;;5110368;27;43382;-69
2023/06/13 01:59:20;;;;;;;2.30;2.30;;;23.90;64.80;;;;;;5107084;28;45711;-69
2023/06/13 02:01:48;;;;;;;2.50;2.50;;;23.90;64.90;;;;;;5107377;28;44709;-68
2023/06/13 02:04:16;;;;;;;2.30;2.30;;;23.80;65.20;;;;;;5107580;27;43444;-69
2023/06/13 02:06:45;;;;;;;2.60;2.60;;;23.80;65.40;;;;;;5109303;27;43381;-68
2023/06/13 02:09:13;;;;;;;2.50;2.50;;;23.70;65.30;;;;;;5107626;27;45983;-68
2023/06/13 02:11:45;;;;;;;2.10;2.10;;;23.70;65.20;;;;;;5106884;28;43391;-68
2023/06/13 02:14:13;;;;;;;2.30;2.30;;;23.70;65.30;;;;;;5108013;27;43410;-68
2023/06/13 02:16:42;;;;;;;2.50;2.50;;;23.60;65.90;;;;;;5107339;28;43410;-68
2023/06/13 02:19:10;;;;;;;2.40;2.40;;;23.60;65.90;;;;;;5108551;27;43602;-68
2023/06/13 02:21:45;;;;;;;2.70;2.70;;;23.60;66.40;;;;;;5108542;27;43445;-69
2023/06/13 02:24:14;;;;;;;2.57;2.57;;;23.60;65.60;;;;;;5107946;28;43339;-69
2023/06/13 02:26:45;;;;;;;2.37;2.37;;;23.50;66.20;;;;;;5106986;28;43368;-69
2023/06/13 02:29:13;;;;;;;2.60;2.60;;;23.50;66.10;;;;;;5106801;27;44006;-68
2023/06/13 02:31:43;;;;;;;2.70;2.70;;;23.60;65.80;;;;;;5106623;28;43471;-68
2023/06/13 02:34:11;;;;;;;2.50;2.50;;;23.70;65.40;;;;;;5108434;27;43378;-69
2023/06/13 02:36:39;;;;;;;2.27;2.27;;;23.90;65.30;;;;;;5109139;28;43400;-68
2023/06/13 02:39:09;;;;;;;2.20;2.20;;;23.90;65.10;;;;;;5106867;28;44620;-69
2023/06/13 02:41:37;;;;;;;2.30;2.30;;;23.90;65.10;;;;;;5108505;28;43417;-68
2023/06/13 02:44:05;;;;;;;2.50;2.50;;;23.80;65.10;;;;;;5107554;27;43831;-68
2023/06/13 02:46:36;;;;;;;2.70;2.60;;;23.70;65.70;;;;;;5109071;27;43320;-68
2023/06/13 02:49:05;;;;;;;2.47;2.47;;;23.70;65.70;;;;;;5108205;27;43859;-68
2023/06/13 02:51:33;;;;;;;2.73;2.73;;;23.70;65.40;;;;;;5107299;27;43410;-69
2023/06/13 02:54:01;;;;;;;2.60;2.60;;;23.60;65.30;;;;;;5107132;28;43565;-69
2023/06/13 02:56:29;;;;;;;2.27;2.27;;;23.60;66.00;;;;;;5106871;28;43474;-69
2023/06/13 02:58:57;;;;;;;2.50;2.50;;;23.60;66.20;;;;;;5105899;28;45645;-69
2023/06/13 03:01:26;;;;;;;2.40;2.40;;;23.60;65.80;;;;;;5105172;28;44690;-69
2023/06/13 03:03:56;;;;;;;2.33;2.33;;;23.60;65.70;;;;;;5105250;28;44103;-68
2023/06/13 03:06:26;;;;;;;2.57;2.47;;;23.50;66.10;;;;;;5097884;28;43975;-68
2023/06/13 03:08:58;;;;;;;2.30;2.30;;;23.50;66.40;;;;;;5106225;27;43681;-69
2023/06/13 03:11:28;;;;;;;2.37;2.37;;;23.60;66.20;;;;;;5106040;28;45174;-68
2023/06/13 03:13:56;;;;;;;2.40;2.40;;;23.70;65.80;;;;;;5105941;28;43465;-68
2023/06/13 03:16:27;;;;;;;2.23;2.23;;;23.80;65.30;;;;;;5106979;28;43552;-68
2023/06/13 03:18:57;;;;;;;2.40;2.40;;;23.90;65.90;;;;;;5107227;27;43949;-68
2023/06/13 03:21:26;;;;;;;2.27;2.27;;;23.90;65.10;;;;;;5106791;27;43402;-67
2023/06/13 03:23:55;;;;;;;2.40;2.40;;;23.80;65.00;;;;;;5105920;28;43512;-68
2023/06/13 03:26:23;;;;;;;2.20;2.20;;;23.70;65.50;;;;;;5106865;28;43471;-68
2023/06/13 03:28:52;;;;;;;2.57;2.57;;;23.70;65.60;;;;;;5110662;27;45605;-67
2023/06/13 03:31:24;;;;;;;2.47;2.47;;;23.70;65.40;;;;;;5103520;27;43909;-69
2023/06/13 03:33:53;;;;;;;2.17;2.17;;;23.60;65.20;;;;;;5106961;28;43444;-67
2023/06/13 03:36:21;;;;;;;2.10;2.10;;;23.60;65.70;;;;;;5108981;27;43482;-67
2023/06/13 03:38:51;;;;;;;2.40;2.40;;;23.60;66.20;;;;;;5106709;28;45492;-67
2023/06/13 03:41:19;;;;;;;2.60;2.60;;;23.60;66.00;;;;;;5106798;28;44970;-68
2023/06/13 03:43:47;;;;;;;2.27;2.27;;;23.50;65.50;;;;;;5106820;28;43429;-68
2023/06/13 03:46:15;;;;;;;2.57;2.47;;;23.50;65.20;;;;;;5107777;28;43558;-68
2023/06/13 03:48:45;;;;;;;2.20;2.20;;;23.50;65.80;;;;;;5107073;28;46026;-67
2023/06/13 03:51:13;;;;;;;2.20;2.20;;;23.50;65.80;;;;;;5107075;28;43437;-68
2023/06/13 03:53:41;;;;;;;2.40;2.40;;;23.50;64.90;;;;;;5101787;28;43474;-68
2023/06/13 03:56:12;;;;;;;2.50;2.50;;;23.50;64.70;;;;;;5108231;28;43403;-67
2023/06/13 03:58:40;;;;;;;2.77;2.57;;;23.40;65.20;;;;;;5107992;27;43801;-68
2023/06/13 04:01:08;;;;;;;2.40;2.40;;;23.40;65.90;;;;;;5107759;27;43394;-67
2023/06/13 04:03:39;;;;;;;2.57;2.57;;;23.50;65.90;;;;;;5105940;27;43484;-68
2023/06/13 04:06:08;;;;;;;2.40;2.40;;;23.60;65.50;;;;;;5107907;27;43454;-68
2023/06/13 04:08:36;;;;;;;2.30;2.30;;;23.70;64.90;;;;;;5106057;27;45480;-69
2023/06/13 04:11:06;;;;;;;2.37;2.37;;;23.80;64.30;;;;;;5105972;28;43782;-68
2023/06/13 04:13:35;;;;;;;2.17;2.17;;;23.90;63.60;;;;;;5107124;28;43382;-69
2023/06/13 04:16:03;;;;;;;2.57;2.57;;;23.90;63.20;;;;;;5108060;27;43792;-68
2023/06/13 04:18:33;;;;;;;2.50;2.50;;;23.80;62.80;;;;;;5106512;27;44160;-69
2023/06/13 04:21:01;;;;;;;2.63;2.63;;;23.70;64.30;;;;;;5109734;28;44722;-69
2023/06/13 04:23:29;;;;;;;2.77;2.70;;;23.70;64.10;;;;;;5111352;27;44270;-68
2023/06/13 04:26:00;;;;;;;2.50;2.50;;;23.70;63.70;;;;;;5112341;27;43371;-68
2023/06/13 04:28:29;;;;;;;2.60;2.60;;;23.60;64.10;;;;;;5110049;28;45694;-68
2023/06/13 04:31:03;;;;;;;2.77;2.77;;;23.60;65.00;;;;;;5110377;27;43311;-68
2023/06/13 04:33:31;;;;;;;2.13;2.13;;;23.60;65.10;;;;;;5111213;27;43411;-68
2023/06/13 04:36:03;;;;;;;2.50;2.50;;;23.50;64.70;;;;;;5110942;27;43342;-68
2023/06/13 04:38:34;;;;;;;2.37;2.37;;;23.50;64.80;;;;;;5110577;27;43838;-68
2023/06/13 04:41:02;;;;;;;2.97;2.77;;;23.50;65.30;;;;;;5111341;27;44442;-68
2023/06/13 04:43:33;;;;;;;2.60;2.60;;;23.40;65.50;;;;;;5110676;27;43464;-68
2023/06/13 04:46:03;;;;;;;2.57;2.57;;;23.50;65.40;;;;;;5110816;27;43666;-68
2023/06/13 04:48:35;;;;;;;2.37;2.37;;;23.50;65.50;;;;;;5110894;27;43598;-68
2023/06/13 04:51:04;;;;;;;2.50;2.50;;;23.40;65.60;;;;;;5109101;28;43949;-68
2023/06/13 04:53:33;;;;;;;2.73;2.60;;;23.40;65.90;;;;;;5109935;28;43469;-68
2023/06/13 04:56:01;;;;;;;2.70;2.50;;;23.40;65.80;;;;;;5111355;27;43411;-68
2023/06/13 04:58:29;;;;;;;3.20;2.90;;;23.50;65.50;;;;;;5109676;28;43941;-68
2023/06/13 05:00:59;;;;;;;2.70;2.67;;;23.60;65.00;;;;;;5110583;28;43446;-68
2023/06/13 05:03:28;;;;;;;3.20;2.50;;;23.70;64.10;;;;;;5103740;28;43384;-68
2023/06/13 05:05:56;;;;;;;2.63;2.60;;;23.80;63.40;;;;;;5110065;27;43374;-68
2023/06/13 05:08:26;;;;;;;2.63;2.57;;;23.80;63.20;;;;;;5105718;28;43922;-68
2023/06/13 05:10:54;;;;;;;2.97;2.87;;;23.80;63.50;;;;;;5110603;28;43375;-68
2023/06/13 05:13:22;;;;;;;2.73;2.63;;;23.70;64.50;;;;;;5110260;28;43728;-67
2023/06/13 05:15:51;;;;;;;2.60;2.60;;;23.70;64.50;;;;;;5110578;27;43377;-68
2023/06/13 05:18:20;;;;;;;2.90;2.83;;;23.60;64.70;;;;;;5110523;27;43593;-68
2023/06/13 05:20:49;;;;;;;3.50;2.83;;;23.60;64.90;;;;;;5108684;28;45024;-68
2023/06/13 05:23:20;;;;;;;2.50;2.50;;;23.50;65.10;;;;;;5105351;28;43417;-68
2023/06/13 05:25:49;;;;;;;2.80;2.70;;;23.50;65.20;;;;;;5110829;27;43462;-68
2023/06/13 05:28:17;;;;;;;2.50;2.50;;;23.50;65.30;;;;;;5112074;27;43606;-68
2023/06/13 05:30:45;;;;;;;2.90;2.80;;;23.50;65.30;;;;;;5108420;27;43465;-68
2023/06/13 05:33:15;;;;;;;3.00;2.90;;;23.50;65.60;;;;;;5110675;28;43326;-68
2023/06/13 05:35:43;;;;;;;3.20;2.80;;;23.40;65.60;;;;;;5110377;27;43450;-68
2023/06/13 05:38:25;;;;;;;3.00;2.90;;;23.50;65.50;;;;;;5110047;28;43905;-69
2023/06/13 05:40:53;;;;;;;2.80;2.70;;;23.50;65.80;;;;;;5109441;27;43524;-68
2023/06/13 05:43:21;;;;;;;2.80;2.73;;;23.40;65.50;;;;;;5109257;28;43406;-68
2023/06/13 05:45:49;;;;;;;2.90;2.80;;;23.40;65.90;;;;;;5110466;28;43357;-69
2023/06/13 05:48:17;;;;;;;2.60;2.50;;;23.40;65.70;;;;;;5107220;28;44208;-68
2023/06/13 05:50:45;;;;;;;2.67;2.67;;;23.50;65.40;;;;;;5109704;27;43474;-68
2023/06/13 05:53:15;;;;;;;2.53;2.53;;;23.60;65.10;;;;;;5103363;28;43379;-68
2023/06/13 05:55:44;;;;;;;2.60;2.60;;;23.70;64.70;;;;;;5110028;28;43705;-68
2023/06/13 05:58:12;;;;;;;2.70;2.50;;;23.80;64.10;;;;;;5109333;27;43682;-68
2023/06/13 06:00:41;;;;;;;2.80;2.80;;;23.80;63.80;;;;;;5109503;28;43400;-68
2023/06/13 06:03:09;;;;;;;2.87;2.77;;;23.80;64.20;;;;;;5109262;28;43451;-69
2023/06/13 06:05:37;;;;;;;2.77;2.67;;;23.70;64.80;;;;;;5110258;27;43972;-68
2023/06/13 06:08:05;;;;;;;2.77;2.70;;;23.70;64.60;;;;;;5108432;27;43597;-69
2023/06/13 06:10:33;;;;;;;2.80;2.73;;;23.60;64.90;;;;;;5106589;28;43984;-68
2023/06/13 06:13:03;;;;;;;2.80;2.70;;;23.60;65.00;;;;;;5108863;28;43440;-68
2023/06/13 06:15:31;;;;;;;2.60;2.60;;;23.60;65.10;;;;;;5110239;28;43324;-68
2023/06/13 06:17:59;;;;;;;2.93;2.83;;;23.50;65.30;;;;;;5110419;27;43726;-69
2023/06/13 06:20:28;;;;;;;2.80;2.70;;;23.50;65.30;;;;;;5108757;27;43466;-68
2023/06/13 06:22:56;;;;;;;2.63;2.63;;;23.50;65.50;;;;;;5108664;27;43381;-68
2023/06/13 06:25:24;;;;;;;2.60;2.60;;;23.40;65.40;;;;;;5108292;28;43389;-68
2023/06/13 06:27:54;;;;;;;2.73;2.63;;;23.40;65.80;;;;;;5108484;28;43652;-68
2023/06/13 06:30:24;;;;;;;2.93;2.83;;;23.40;65.60;;;;;;5108985;27;43743;-68
2023/06/13 06:32:54;;;;;;;2.63;2.63;;;23.50;65.30;;;;;;5108846;27;43477;-68
2023/06/13 06:35:22;;;;;;;2.80;2.70;;;23.60;64.90;;;;;;5108896;27;43367;-68
2023/06/13 06:37:50;;;;;;;2.97;2.80;;;23.70;64.40;;;;;;5109402;27;43634;-69
2023/06/13 06:40:18;;;;;;;2.60;2.60;;;23.70;64.40;;;;;;5108139;28;43416;-69
2023/06/13 06:42:46;;;;;;;2.40;2.40;;;23.70;64.70;;;;;;5108205;27;43358;-68
2023/06/13 06:45:21;;;;;;;2.70;2.60;;;23.60;64.70;;;;;;5108406;27;43471;-68
2023/06/13 06:47:51;;;;;;;2.67;2.67;;;23.60;65.20;;;;;;5107777;27;43607;-69
2023/06/13 06:50:19;;;;;;;2.80;2.70;;;23.50;65.10;;;;;;5101522;28;43423;-68
2023/06/13 06:52:47;;;;;;;2.70;2.60;;;23.50;65.40;;;;;;5104305;28;43487;-68
2023/06/13 06:55:15;;;;;;;2.40;2.40;;;23.50;65.40;;;;;;5106846;28;43358;-69
2023/06/13 06:57:43;;;;;;;2.80;2.80;;;23.40;65.70;;;;;;5104682;28;45699;-69
2023/06/13 07:00:14;;;;;;;2.60;2.60;;;23.40;65.50;;;;;;5108316;27;43356;-68
2023/06/13 07:02:44;;;;;;;2.83;2.80;;;23.50;65.40;;;;;;5106851;28;43509;-68
2023/06/13 07:05:15;;;;;;;2.90;2.80;;;23.60;65.10;;;;;;5108595;27;43403;-68
2023/06/13 07:07:44;;;;;;;2.60;2.50;;;23.70;64.50;;;;;;5107841;27;43848;-68
2023/06/13 07:10:12;;;;;;;2.60;2.60;;;23.70;64.60;;;;;;5108826;27;43354;-68
2023/06/13 07:12:40;;;;;;;2.60;2.50;;;23.70;64.70;;;;;;5108510;27;43430;-68
2023/06/13 07:15:08;;;;;;;3.10;3.00;;;23.60;64.80;;;;;;5103075;27;43382;-68
2023/06/13 07:17:36;;;;;;;2.57;2.50;;;23.50;65.20;;;;;;5108347;27;43835;-68
2023/06/13 07:20:08;;;;;;;2.60;2.60;;;23.50;65.10;;;;;;5108287;27;43925;-68
2023/06/13 07:22:37;;;;;;;2.40;2.40;;;23.50;65.40;;;;;;5108119;27;43478;-68
2023/06/13 07:25:06;;;;;;;2.77;2.67;;;23.50;65.40;;;;;;5109547;27;43410;-68
2023/06/13 07:27:34;;;;;;;2.40;2.40;;;23.50;65.60;;;;;;5107940;27;43871;-68
2023/06/13 07:30:02;;;;;;;2.70;2.70;;;23.40;65.70;;;;;;5107798;27;43502;-68
2023/06/13 07:32:30;;;;;;;2.63;2.47;;;23.40;65.90;;;;;;5108430;28;43411;-68
2023/06/13 07:34:58;;;;;;;2.57;2.57;;;23.40;65.60;;;;;;5108072;27;43502;-68
2023/06/13 07:37:33;;;;;;;2.53;2.43;;;23.40;65.70;;;;;;5104758;28;43954;-68
2023/06/13 07:40:05;;;;;;;2.40;2.40;;;23.30;65.90;;;;;;5108016;28;43888;-68
2023/06/13 07:42:33;;;;;;;2.40;2.40;;;23.40;66.00;;;;;;5107761;27;43412;-68
2023/06/13 07:45:01;;;;;;;2.50;2.50;;;23.40;66.00;;;;;;5106124;28;43398;-68
2023/06/13 07:47:29;;;;;;;2.10;2.10;;;23.30;65.80;;;;;;5107321;27;43618;-68
2023/06/13 07:49:57;;;;;;;2.57;2.47;;;23.30;66.20;;;;;;5106243;28;43496;-68
2023/06/13 07:52:25;;;;;;;2.43;2.40;;;23.30;66.00;;;;;;5101604;27;44307;-68
2023/06/13 07:54:53;;;;;;;2.57;2.57;;;23.40;65.80;;;;;;5106752;27;43385;-68
2023/06/13 07:57:22;;;;;;;2.67;2.67;;;23.50;65.30;;;;;;5110556;28;43754;-68
2023/06/13 08:00:16;;;;;;;3.20;3.00;;;23.60;64.90;;;;;;5110062;28;43370;-68
2023/06/13 08:02:44;;;;;;;3.43;3.13;;;23.70;64.20;;;;;;5110604;28;43382;-68
2023/06/13 08:05:12;;;;;;;4.77;3.07;;;23.70;63.80;;;;;;5114718;27;43444;-68
2023/06/13 08:07:40;;;;;;;4.07;3.00;;;23.70;64.10;;;;;;5114350;28;43718;-69
2023/06/13 08:10:08;;;;;;;5.20;3.60;;;23.60;65.00;;;;;;5110367;27;43497;-69
2023/06/13 08:12:39;;;;;;;3.73;3.53;;;23.60;65.10;;;;;;5113771;27;44053;-68
2023/06/13 08:15:09;;;;;;;4.33;3.27;;;23.50;64.90;;;;;;5112923;28;43545;-68
2023/06/13 08:17:39;;;;;;;4.10;3.70;;;23.50;65.20;;;;;;5113571;28;43782;-68
2023/06/13 08:20:08;;;;;;;5.73;3.77;;;23.40;65.10;;;;;;5114131;27;43380;-68
2023/06/13 08:22:37;;;;;;;5.40;3.70;;;23.40;65.70;;;;;;5113641;27;43417;-69
2023/06/13 08:25:07;;;;;;;3.40;3.20;;;23.40;65.60;;;;;;5114243;28;43392;-68
2023/06/13 08:27:36;;;;;;;4.93;4.00;;;23.40;65.70;;;;;;5114141;27;43799;-68
2023/06/13 08:30:07;;;;;;;4.13;3.70;;;23.40;65.70;;;;;;5113505;27;43414;-68
2023/06/13 08:32:35;;;;;;;6.43;3.80;;;23.30;65.90;;;;;;5114004;28;43415;-68
2023/06/13 08:35:04;;;;;;;4.20;3.80;;;23.30;65.80;;;;;;5113670;27;43422;-68
2023/06/13 08:37:32;;;;;;;4.70;4.07;;;23.40;65.60;;;;;;5112479;27;45348;-68
2023/06/13 08:39:59;;;;;;;5.07;3.93;;;23.50;65.10;;;;;;5112997;28;43417;-69
2023/06/13 08:42:27;;;;;;;3.93;3.50;;;23.60;64.90;;;;;;5114026;27;43954;-68
2023/06/13 08:44:55;;;;;;;4.37;4.00;;;23.60;64.40;;;;;;5107003;27;43439;-69
2023/06/13 08:47:25;;;;;;;3.47;3.17;;;23.60;64.30;;;;;;5112942;28;43681;-68
2023/06/13 08:50:05;;;;;;;4.07;3.70;;;23.50;64.80;;;;;;5111496;28;43458;-68
2023/06/13 08:52:37;;;;;;;3.90;3.60;;;23.50;65.40;;;;;;5107301;27;43472;-69
2023/06/13 08:55:07;;;;;;;4.47;4.07;;;23.40;64.80;;;;;;5113389;27;43371;-68
2023/06/13 08:57:55;;;;;;;3.73;3.50;;;23.40;65.00;;;;;;5109735;28;43821;-68
2023/06/13 09:00:23;;;;;;;4.37;3.67;;;23.30;63.70;;;;;;5112926;28;43379;-68
2023/06/13 09:02:53;;;;;;;3.77;3.30;;;23.30;65.20;;;;;;5113496;27;43354;-68
2023/06/13 09:05:21;;;;;;;3.80;3.60;;;23.30;64.60;;;;;;5112478;27;43456;-68
2023/06/13 09:07:50;;;;;;;3.50;3.30;;;23.30;65.30;;;;;;5108715;27;43855;-69
2023/06/13 09:10:18;;;;;;;3.53;3.33;;;23.30;65.00;;;;;;5109770;28;43429;-68
2023/06/13 09:12:49;;;;;;;3.77;3.57;;;23.20;65.30;;;;;;5115880;27;43765;-68
2023/06/13 09:15:17;;;;;;;3.67;3.47;;;23.20;65.40;;;;;;5110160;27;43414;-68
2023/06/13 09:17:45;;;;;;;3.93;3.47;;;23.30;65.10;;;;;;5109671;27;43591;-69
2023/06/13 09:20:15;;;;;;;3.27;3.10;;;23.40;64.60;;;;;;5110108;28;43323;-68
2023/06/13 09:22:44;;;;;;;3.93;3.60;;;23.50;64.00;;;;;;5108919;27;43524;-68
2023/06/13 09:25:16;;;;;;;3.80;3.60;;;23.60;63.90;;;;;;5109657;28;43375;-68
2023/06/13 09:27:44;;;;;;;4.37;3.63;;;23.60;63.50;;;;;;5109217;28;43884;-68
2023/06/13 09:30:14;;;;;;;3.57;3.37;;;23.50;62.80;;;;;;5109149;27;43333;-68
2023/06/13 09:32:51;;;;;;;3.27;3.07;;;23.50;64.30;;;;;;5109701;27;43414;-68
2023/06/13 09:35:21;;;;;;;3.40;3.13;;;23.40;64.70;;;;;;5108473;28;43586;-67
2023/06/13 09:38:12;;;;;;;3.03;2.93;;;23.40;64.60;;;;;;5104176;28;43948;-68
2023/06/13 09:40:40;;;;;;;4.33;3.00;;;23.30;63.20;;;;;;5109780;28;43415;-68
2023/06/13 09:43:08;;;;;;;3.43;3.23;;;23.30;64.40;;;;;;5109104;27;43365;-67
2023/06/13 09:45:36;;;;;;;3.53;3.23;;;23.30;64.90;;;;;;5109050;28;43684;-68
2023/06/13 09:48:04;;;;;;;3.30;3.20;;;23.30;64.40;;;;;;5108710;28;45663;-67
2023/06/13 09:50:36;;;;;;;3.10;3.00;;;23.20;64.50;;;;;;5108767;27;43394;-68
2023/06/13 09:53:04;;;;;;;3.10;2.90;;;23.20;64.30;;;;;;5108721;27;43457;-67
2023/06/13 09:55:33;;;;;;;3.40;3.20;;;23.20;65.10;;;;;;5109740;27;43624;-67
2023/06/13 09:58:01;;;;;;;3.57;3.33;;;23.20;65.10;;;;;;5108130;27;43836;-68
2023/06/13 10:00:35;;;;;;;3.37;3.27;;;23.30;64.70;;;;;;5108535;27;43402;-68
2023/06/13 10:03:03;;;;;;;3.17;3.07;;;23.40;64.10;;;;;;5110466;27;43473;-68
2023/06/13 10:05:49;;;;;;;3.20;3.10;;;23.50;63.00;;;;;;5108542;27;43343;-67
2023/06/13 10:08:17;;;;;;;2.97;2.87;;;23.50;62.90;;;;;;5112059;27;43590;-67
2023/06/13 10:10:46;;;;;;;3.20;3.10;;;23.50;63.10;;;;;;5107224;28;44857;-67
2023/06/13 10:13:16;;;;;;;3.73;3.40;;;23.40;62.50;;;;;;5108160;27;43477;-67
2023/06/13 10:15:45;;;;;;;3.50;3.30;;;23.30;63.40;;;;;;5109532;27;43395;-67
2023/06/13 10:18:15;;;;;;;3.30;3.10;;;23.30;64.00;;;;;;5107761;27;43993;-67
2023/06/13 10:20:42;;;;;;;3.10;2.97;;;23.30;64.30;;;;;;5103273;28;43334;-69
2023/06/13 10:23:12;;;;;;;2.97;2.87;;;23.30;64.10;;;;;;5104277;28;43907;-69
2023/06/13 10:25:40;;;;;;;3.10;2.90;;;23.20;64.70;;;;;;5101940;28;43381;-69
2023/06/13 10:28:14;;;;;;;2.93;2.83;;;23.20;64.90;;;;;;5108032;27;43855;-67
2023/06/13 10:30:53;;;;;;;3.10;3.00;;;23.30;64.50;;;;;;5102827;28;43407;-68
2023/06/13 10:33:33;;;;;;;2.80;2.70;;;23.40;64.00;;;;;;5108833;27;43371;-68
2023/06/13 10:36:14;;;;;;;2.83;2.70;;;23.50;63.90;;;;;;5107965;27;43482;-67
2023/06/13 10:38:54;;;;;;;2.60;2.50;;;23.50;63.80;;;;;;5107710;27;43847;-67
2023/06/13 10:41:44;;;;;;;2.97;2.87;;;23.40;63.70;;;;;;5108033;28;43435;-68
2023/06/13 10:44:14;;;;;;;2.87;2.77;;;23.40;64.10;;;;;;5107807;28;43410;-67
2023/06/13 10:46:42;;;;;;;2.87;2.77;;;23.30;64.40;;;;;;5108343;27;43409;-68
2023/06/13 10:49:14;;;;;;;2.70;2.60;;;23.30;64.30;;;;;;5107801;27;43602;-67
2023/06/13 10:51:43;;;;;;;2.83;2.73;;;23.20;63.20;;;;;;5105083;27;43469;-68
2023/06/13 10:54:14;;;;;;;2.60;2.50;;;23.20;63.10;;;;;;5108046;27;43403;-68
2023/06/13 10:56:43;;;;;;;2.97;2.87;;;23.20;64.70;;;;;;5107771;27;43418;-67
2023/06/13 10:59:12;;;;;;;2.90;2.80;;;23.20;64.60;;;;;;5108332;27;44206;-67
2023/06/13 11:01:41;;;;;;;2.57;2.57;;;23.20;64.50;;;;;;5108135;27;43367;-67
2023/06/13 11:04:13;;;;;;;2.70;2.70;;;23.20;64.40;;;;;;5108340;27;43457;-67
2023/06/13 11:06:42;;;;;;;2.93;2.73;;;23.20;65.10;;;;;;5108879;27;43442;-68
2023/06/13 11:09:17;;;;;;;2.93;2.80;;;23.20;65.20;;;;;;5106879;27;43602;-68
2023/06/13 11:11:50;;;;;;;2.97;2.87;;;23.20;64.80;;;;;;5102015;28;43384;-69
2023/06/13 11:14:20;;;;;;;2.80;2.70;;;23.40;64.20;;;;;;5102858;28;43426;-69
2023/06/13 11:16:48;;;;;;;2.57;2.57;;;23.40;63.90;;;;;;5107485;27;43386;-69
2023/06/13 11:19:17;;;;;;;2.57;2.57;;;23.50;64.00;;;;;;5106975;28;43899;-68
2023/06/13 11:21:46;;;;;;;2.83;2.73;;;23.50;64.10;;;;;;5106980;27;43390;-69
2023/06/13 11:24:16;;;;;;;2.43;2.43;;;23.40;63.80;;;;;;5105674;27;43421;-68
2023/06/13 11:26:47;;;;;;;2.77;2.67;;;23.40;64.70;;;;;;5103484;28;43393;-68
2023/06/13 11:29:15;;;;;;;3.47;2.50;;;23.30;64.50;;;;;;5105654;27;43644;-68
2023/06/13 11:31:43;;;;;;;3.47;2.50;;;23.30;64.60;;;;;;5107049;27;43348;-68
2023/06/13 11:34:15;;;;;;;3.00;2.90;;;23.20;64.30;;;;;;5106316;27;43346;-68
2023/06/13 11:36:44;;;;;;;3.00;2.87;;;23.20;62.90;;;;;;5104634;28;43421;-68
2023/06/13 11:39:15;;;;;;;3.00;2.67;;;23.20;63.00;;;;;;5107526;28;43754;-68
2023/06/13 11:41:43;;;;;;;3.20;3.00;;;23.20;63.30;;;;;;5102034;27;43375;-68
2023/06/13 11:44:11;;;;;;;2.90;2.80;;;23.10;63.20;;;;;;5107733;27;43395;-69
2023/06/13 11:46:44;;;;;;;3.20;3.10;;;23.20;63.10;;;;;;5108263;27;43516;-68
2023/06/13 11:49:13;;;;;;;3.33;3.13;;;23.10;63.60;;;;;;5107137;27;43713;-68
2023/06/13 11:51:42;;;;;;;2.93;2.77;;;23.20;63.50;;;;;;5104718;27;43418;-68
2023/06/13 11:54:11;;;;;;;2.90;2.80;;;23.30;63.30;;;;;;5102099;28;43421;-69
2023/06/13 11:56:51;;;;;;;3.23;2.97;;;23.40;62.80;;;;;;5098266;27;43567;-68
2023/06/13 11:59:20;;;;;;;3.00;2.90;;;23.40;62.20;;;;;;5090023;27;43613;-69
2023/06/13 12:01:49;;;;;;;3.00;2.90;;;23.40;62.80;;;;;;5102034;27;43379;-68
2023/06/13 12:04:17;;;;;;;2.60;2.60;;;23.40;62.40;;;;;;5091114;28;43410;-68
2023/06/13 12:06:45;;;;;;;2.97;2.80;;;23.30;62.90;;;;;;5097352;28;43464;-69
2023/06/13 12:09:15;;;;;;;2.97;2.80;;;23.30;63.50;;;;;;5089862;28;43843;-69
2023/06/13 12:11:44;;;;;;;3.00;2.90;;;23.30;63.10;;;;;;5100215;28;43508;-69
2023/06/13 12:14:12;;;;;;;3.43;3.20;;;23.30;63.60;;;;;;5105951;27;43376;-69
2023/06/13 12:16:40;;;;;;;2.80;2.70;;;23.20;62.90;;;;;;5107105;27;43402;-69
2023/06/13 12:19:10;;;;;;;2.70;2.70;;;23.20;63.70;;;;;;5106417;27;43697;-68
2023/06/13 12:21:38;;;;;;;2.63;2.63;;;23.20;63.90;;;;;;5106788;28;43370;-68
2023/06/13 12:24:08;;;;;;;2.67;2.67;;;23.20;63.80;;;;;;5106186;27;43480;-68
2023/06/13 12:26:40;;;;;;;2.90;2.80;;;23.10;63.50;;;;;;5102758;28;43540;-68
2023/06/13 12:29:11;;;;;;;3.00;2.90;;;23.10;64.30;;;;;;5103198;27;43913;-68
2023/06/13 12:31:42;;;;;;;2.87;2.77;;;23.10;64.30;;;;;;5099691;27;43452;-67
2023/06/13 12:34:13;;;;;;;2.53;2.43;;;23.10;64.20;;;;;;5098632;27;43386;-68
2023/06/13 12:36:43;;;;;;;2.63;2.63;;;23.10;63.90;;;;;;5101238;27;44048;-67
2023/06/13 12:39:14;;;;;;;2.70;2.70;;;23.10;63.50;;;;;;5102324;28;43877;-67
2023/06/13 12:41:46;;;;;;;2.77;2.70;;;23.10;64.50;;;;;;5107322;27;43455;-67
2023/06/13 12:44:20;;;;;;;2.87;2.77;;;23.10;64.40;;;;;;5108854;28;43396;-67
2023/06/13 12:46:48;;;;;;;3.00;2.90;;;23.20;64.00;;;;;;5098311;27;44816;-68
2023/06/13 12:49:19;;;;;;;3.00;2.90;;;23.30;63.50;;;;;;5103399;28;43683;-68
2023/06/13 12:51:48;;;;;;;2.57;2.47;;;23.40;63.30;;;;;;5105954;27;43479;-67
2023/06/13 12:54:17;;;;;;;2.90;2.80;;;23.50;62.70;;;;;;5107347;27;44032;-68
2023/06/13 12:56:55;;;;;;;2.70;2.60;;;23.50;62.80;;;;;;5100620;28;43459;-68
2023/06/13 12:59:31;;;;;;;2.60;2.60;;;23.40;62.60;;;;;;5105704;28;43828;-68
2023/06/13 13:01:59;;;;;;;2.70;2.60;;;23.40;63.70;;;;;;5109289;27;43470;-68